sensor_id;sensor_type;location;lat;lon;timestamp;temperature;humidity
27384;DHT22;14851;51.166;4.760;2023-02-15T00:01:39;2.30;99.90
27384;DHT22;14851;51.166;4.760;2023-02-15T00:04:06;2.30;99.90
27384;DHT22;14851;51.166;4.760;2023-02-15T00:06:33;2.30;99.90
27384;DHT22;14851;51.166;4.760;2023-02-15T00:09:03;2.20;99.90
27384;DHT22;14851;51.166;4.760;2023-02-15T00:11:31;2.20;99.90
27384;DHT22;14851;51.166;4.760;2023-02-15T00:14:15;2.20;99.90
27384;DHT22;14851;51.166;4.760;2023-02-15T00:16:43;2.10;99.90
27384;DHT22;14851;51.166;4.760;2023-02-15T00:19:10;2.10;99.90
27384;DHT22;14851;51.166;4.760;2023-02-15T00:21:38;2.10;99.90
27384;DHT22;14851;51.166;4.760;2023-02-15T00:24:07;2.10;99.90
27384;DHT22;14851;51.166;4.760;2023-02-15T00:26:34;2.10;99.90
27384;DHT22;14851;51.166;4.760;2023-02-15T00:29:00;2.10;99.90
27384;DHT22;14851;51.166;4.760;2023-02-15T00:31:28;2.10;99.90
27384;DHT22;14851;51.166;4.760;2023-02-15T00:33:56;2.10;99.90
27384;DHT22;14851;51.166;4.760;2023-02-15T00:36:26;2.00;99.90
27384;DHT22;14851;51.166;4.760;2023-02-15T00:38:51;2.00;99.90
27384;DHT22;14851;51.166;4.760;2023-02-15T00:41:22;2.00;99.90
27384;DHT22;14851;51.166;4.760;2023-02-15T00:43:48;2.00;99.90
27384;DHT22;14851;51.166;4.760;2023-02-15T00:46:14;1.90;99.90
27384;DHT22;14851;51.166;4.760;2023-02-15T00:48:42;1.90;99.90
27384;DHT22;14851;51.166;4.760;2023-02-15T00:51:08;1.90;99.90
27384;DHT22;14851;51.166;4.760;2023-02-15T00:53:34;1.90;99.90
27384;DHT22;14851;51.166;4.760;2023-02-15T00:56:00;1.90;99.90
27384;DHT22;14851;51.166;4.760;2023-02-15T00:58:28;1.90;99.90
27384;DHT22;14851;51.166;4.760;2023-02-15T01:01:04;1.90;99.90
27384;DHT22;14851;51.166;4.760;2023-02-15T01:03:31;1.80;99.90
27384;DHT22;14851;51.166;4.760;2023-02-15T01:05:56;1.80;99.90
27384;DHT22;14851;51.166;4.760;2023-02-15T01:08:26;1.80;99.90
27384;DHT22;14851;51.166;4.760;2023-02-15T01:10:52;1.80;99.90
27384;DHT22;14851;51.166;4.760;2023-02-15T01:13:23;1.70;99.90
27384;DHT22;14851;51.166;4.760;2023-02-15T01:15:55;1.70;99.90
27384;DHT22;14851;51.166;4.760;2023-02-15T01:18:25;1.70;99.90
27384;DHT22;14851;51.166;4.760;2023-02-15T01:20:54;1.70;99.90
27384;DHT22;14851;51.166;4.760;2023-02-15T01:23:24;1.70;99.90
27384;DHT22;14851;51.166;4.760;2023-02-15T01:25:50;1.70;99.90
27384;DHT22;14851;51.166;4.760;2023-02-15T01:28:16;1.70;99.90
27384;DHT22;14851;51.166;4.760;2023-02-15T01:30:44;1.70;99.90
27384;DHT22;14851;51.166;4.760;2023-02-15T01:33:10;1.70;99.90
27384;DHT22;14851;51.166;4.760;2023-02-15T01:35:44;1.70;99.90
27384;DHT22;14851;51.166;4.760;2023-02-15T01:38:16;1.60;99.90
27384;DHT22;14851;51.166;4.760;2023-02-15T01:40:44;1.60;99.90
27384;DHT22;14851;51.166;4.760;2023-02-15T01:43:12;1.50;99.90
27384;DHT22;14851;51.166;4.760;2023-02-15T01:45:38;1.50;99.90
27384;DHT22;14851;51.166;4.760;2023-02-15T01:48:27;1.50;99.90
27384;DHT22;14851;51.166;4.760;2023-02-15T01:50:58;1.50;99.90
27384;DHT22;14851;51.166;4.760;2023-02-15T01:53:35;1.50;99.90
27384;DHT22;14851;51.166;4.760;2023-02-15T01:56:15;1.50;99.90
27384;DHT22;14851;51.166;4.760;2023-02-15T01:58:49;1.50;99.90
27384;DHT22;14851;51.166;4.760;2023-02-15T02:01:17;1.40;99.90
27384;DHT22;14851;51.166;4.760;2023-02-15T02:06:33;1.40;99.90
27384;DHT22;14851;51.166;4.760;2023-02-15T02:09:02;1.50;99.90
27384;DHT22;14851;51.166;4.760;2023-02-15T02:11:30;1.40;99.90
27384;DHT22;14851;51.166;4.760;2023-02-15T02:13:57;1.40;99.90
27384;DHT22;14851;51.166;4.760;2023-02-15T02:28:05;1.30;99.90
27384;DHT22;14851;51.166;4.760;2023-02-15T02:33:39;1.30;99.90
27384;DHT22;14851;51.166;4.760;2023-02-15T02:42:11;1.30;99.90
27384;DHT22;14851;51.166;4.760;2023-02-15T02:44:48;1.30;99.90
27384;DHT22;14851;51.166;4.760;2023-02-15T02:47:21;1.20;99.90
27384;DHT22;14851;51.166;4.760;2023-02-15T02:49:57;1.20;99.90
27384;DHT22;14851;51.166;4.760;2023-02-15T02:52:47;1.20;99.90
27384;DHT22;14851;51.166;4.760;2023-02-15T02:58:10;1.20;99.90
27384;DHT22;14851;51.166;4.760;2023-02-15T03:00:43;1.20;99.90
27384;DHT22;14851;51.166;4.760;2023-02-15T03:03:14;1.20;99.90
27384;DHT22;14851;51.166;4.760;2023-02-15T03:05:47;1.20;99.90
27384;DHT22;14851;51.166;4.760;2023-02-15T03:08:18;1.10;99.90
27384;DHT22;14851;51.166;4.760;2023-02-15T03:10:54;1.10;99.90
27384;DHT22;14851;51.166;4.760;2023-02-15T03:13:22;1.10;99.90
27384;DHT22;14851;51.166;4.760;2023-02-15T03:15:51;1.00;99.90
27384;DHT22;14851;51.166;4.760;2023-02-15T03:18:41;1.00;99.90
27384;DHT22;14851;51.166;4.760;2023-02-15T03:21:09;1.00;99.90
27384;DHT22;14851;51.166;4.760;2023-02-15T03:24:12;1.10;99.90
27384;DHT22;14851;51.166;4.760;2023-02-15T03:26:45;1.00;99.90
27384;DHT22;14851;51.166;4.760;2023-02-15T03:29:15;1.00;99.90
27384;DHT22;14851;51.166;4.760;2023-02-15T03:31:46;1.00;99.90
27384;DHT22;14851;51.166;4.760;2023-02-15T03:34:13;1.00;99.90
27384;DHT22;14851;51.166;4.760;2023-02-15T03:37:07;1.00;99.90
27384;DHT22;14851;51.166;4.760;2023-02-15T03:39:44;1.00;99.90
27384;DHT22;14851;51.166;4.760;2023-02-15T03:47:28;1.00;99.90
27384;DHT22;14851;51.166;4.760;2023-02-15T03:50:00;1.00;99.90
27384;DHT22;14851;51.166;4.760;2023-02-15T03:52:28;1.00;99.90
27384;DHT22;14851;51.166;4.760;2023-02-15T03:54:54;0.90;99.90
27384;DHT22;14851;51.166;4.760;2023-02-15T03:57:28;0.90;99.90
27384;DHT22;14851;51.166;4.760;2023-02-15T04:00:15;0.90;99.90
27384;DHT22;14851;51.166;4.760;2023-02-15T04:05:31;0.90;99.90
27384;DHT22;14851;51.166;4.760;2023-02-15T04:07:57;0.90;99.90
27384;DHT22;14851;51.166;4.760;2023-02-15T04:10:23;0.90;99.90
27384;DHT22;14851;51.166;4.760;2023-02-15T04:13:07;0.90;99.90
27384;DHT22;14851;51.166;4.760;2023-02-15T04:15:33;0.90;99.90
27384;DHT22;14851;51.166;4.760;2023-02-15T04:18:17;0.90;99.90
27384;DHT22;14851;51.166;4.760;2023-02-15T04:20:46;0.80;99.90
27384;DHT22;14851;51.166;4.760;2023-02-15T04:23:30;0.80;99.90
27384;DHT22;14851;51.166;4.760;2023-02-15T04:26:15;0.80;99.90
27384;DHT22;14851;51.166;4.760;2023-02-15T04:28:41;0.70;99.90
27384;DHT22;14851;51.166;4.760;2023-02-15T04:31:07;0.80;99.90
27384;DHT22;14851;51.166;4.760;2023-02-15T04:33:33;0.70;99.90
27384;DHT22;14851;51.166;4.760;2023-02-15T04:36:07;0.70;99.90
27384;DHT22;14851;51.166;4.760;2023-02-15T04:38:33;0.70;99.90
27384;DHT22;14851;51.166;4.760;2023-02-15T04:40:59;0.70;99.90
27384;DHT22;14851;51.166;4.760;2023-02-15T04:43:27;0.70;99.90
27384;DHT22;14851;51.166;4.760;2023-02-15T04:45:55;0.70;99.90
27384;DHT22;14851;51.166;4.760;2023-02-15T04:48:21;0.70;99.90
27384;DHT22;14851;51.166;4.760;2023-02-15T04:50:47;0.70;99.90
27384;DHT22;14851;51.166;4.760;2023-02-15T04:53:12;0.70;99.90
27384;DHT22;14851;51.166;4.760;2023-02-15T04:55:39;0.70;99.90
27384;DHT22;14851;51.166;4.760;2023-02-15T04:58:04;0.70;99.90
27384;DHT22;14851;51.166;4.760;2023-02-15T05:00:30;0.70;99.90
27384;DHT22;14851;51.166;4.760;2023-02-15T05:02:56;0.60;99.90
27384;DHT22;14851;51.166;4.760;2023-02-15T05:05:23;0.60;99.90
27384;DHT22;14851;51.166;4.760;2023-02-15T05:07:49;0.60;99.90
27384;DHT22;14851;51.166;4.760;2023-02-15T05:10:17;0.80;99.90
27384;DHT22;14851;51.166;4.760;2023-02-15T05:12:45;0.90;99.90
27384;DHT22;14851;51.166;4.760;2023-02-15T05:15:11;1.00;99.90
27384;DHT22;14851;51.166;4.760;2023-02-15T05:17:37;1.10;99.90
27384;DHT22;14851;51.166;4.760;2023-02-15T05:20:04;1.10;99.90
27384;DHT22;14851;51.166;4.760;2023-02-15T05:22:30;1.00;99.90
27384;DHT22;14851;51.166;4.760;2023-02-15T05:24:58;0.80;99.90
27384;DHT22;14851;51.166;4.760;2023-02-15T05:27:42;0.70;99.90
27384;DHT22;14851;51.166;4.760;2023-02-15T05:30:27;0.60;99.90
27384;DHT22;14851;51.166;4.760;2023-02-15T05:32:53;0.50;99.90
27384;DHT22;14851;51.166;4.760;2023-02-15T05:35:19;0.40;99.90
27384;DHT22;14851;51.166;4.760;2023-02-15T05:37:45;0.30;99.90
27384;DHT22;14851;51.166;4.760;2023-02-15T05:40:11;0.30;99.90
27384;DHT22;14851;51.166;4.760;2023-02-15T05:42:37;0.40;99.90
27384;DHT22;14851;51.166;4.760;2023-02-15T05:45:03;0.70;99.90
27384;DHT22;14851;51.166;4.760;2023-02-15T05:47:29;0.90;99.90
27384;DHT22;14851;51.166;4.760;2023-02-15T05:49:55;0.90;99.90
27384;DHT22;14851;51.166;4.760;2023-02-15T05:52:21;1.00;99.90
27384;DHT22;14851;51.166;4.760;2023-02-15T05:54:47;1.00;99.90
27384;DHT22;14851;51.166;4.760;2023-02-15T05:57:15;1.00;99.90
27384;DHT22;14851;51.166;4.760;2023-02-15T05:59:41;1.00;99.90
27384;DHT22;14851;51.166;4.760;2023-02-15T06:02:06;1.00;99.90
27384;DHT22;14851;51.166;4.760;2023-02-15T06:04:35;0.90;99.90
27384;DHT22;14851;51.166;4.760;2023-02-15T06:07:00;0.80;99.90
27384;DHT22;14851;51.166;4.760;2023-02-15T06:09:26;0.70;99.90
27384;DHT22;14851;51.166;4.760;2023-02-15T06:11:52;0.70;99.90
27384;DHT22;14851;51.166;4.760;2023-02-15T06:14:20;0.70;99.90
27384;DHT22;14851;51.166;4.760;2023-02-15T06:16:46;0.70;99.90
27384;DHT22;14851;51.166;4.760;2023-02-15T06:19:12;0.60;99.90
27384;DHT22;14851;51.166;4.760;2023-02-15T06:21:38;0.50;99.90
27384;DHT22;14851;51.166;4.760;2023-02-15T06:24:04;0.30;99.90
27384;DHT22;14851;51.166;4.760;2023-02-15T06:26:33;0.20;99.90
27384;DHT22;14851;51.166;4.760;2023-02-15T06:28:58;0.20;99.90
27384;DHT22;14851;51.166;4.760;2023-02-15T06:31:24;0.30;99.90
27384;DHT22;14851;51.166;4.760;2023-02-15T06:33:51;0.50;99.90
27384;DHT22;14851;51.166;4.760;2023-02-15T06:36:19;0.60;99.90
27384;DHT22;14851;51.166;4.760;2023-02-15T06:38:44;0.60;99.90
27384;DHT22;14851;51.166;4.760;2023-02-15T06:41:10;0.60;99.90
27384;DHT22;14851;51.166;4.760;2023-02-15T06:43:36;0.60;99.90
27384;DHT22;14851;51.166;4.760;2023-02-15T06:46:04;0.60;99.90
27384;DHT22;14851;51.166;4.760;2023-02-15T06:48:31;0.50;99.90
27384;DHT22;14851;51.166;4.760;2023-02-15T06:50:59;0.30;99.90
27384;DHT22;14851;51.166;4.760;2023-02-15T06:53:28;0.20;99.90
27384;DHT22;14851;51.166;4.760;2023-02-15T06:56:01;0.10;99.90
27384;DHT22;14851;51.166;4.760;2023-02-15T06:58:28;0.10;99.90
27384;DHT22;14851;51.166;4.760;2023-02-15T07:00:54;0.00;99.90
27384;DHT22;14851;51.166;4.760;2023-02-15T07:03:20;0.10;99.90
27384;DHT22;14851;51.166;4.760;2023-02-15T07:05:46;0.30;99.90
27384;DHT22;14851;51.166;4.760;2023-02-15T07:08:14;0.50;99.90
27384;DHT22;14851;51.166;4.760;2023-02-15T07:10:44;0.60;99.90
27384;DHT22;14851;51.166;4.760;2023-02-15T07:13:12;0.60;99.90
27384;DHT22;14851;51.166;4.760;2023-02-15T07:15:37;0.60;99.90
27384;DHT22;14851;51.166;4.760;2023-02-15T07:18:03;0.60;99.90
27384;DHT22;14851;51.166;4.760;2023-02-15T07:20:30;0.60;99.90
27384;DHT22;14851;51.166;4.760;2023-02-15T07:22:58;0.70;99.90
27384;DHT22;14851;51.166;4.760;2023-02-15T07:25:24;0.70;99.90
27384;DHT22;14851;51.166;4.760;2023-02-15T07:27:56;0.60;99.90
27384;DHT22;14851;51.166;4.760;2023-02-15T07:30:22;0.60;99.90
27384;DHT22;14851;51.166;4.760;2023-02-15T07:32:48;0.60;99.90
27384;DHT22;14851;51.166;4.760;2023-02-15T07:35:33;0.70;99.90
27384;DHT22;14851;51.166;4.760;2023-02-15T07:38:03;0.70;99.90
27384;DHT22;14851;51.166;4.760;2023-02-15T07:40:29;0.60;99.90
27384;DHT22;14851;51.166;4.760;2023-02-15T07:42:57;0.60;99.90
27384;DHT22;14851;51.166;4.760;2023-02-15T07:45:24;0.50;99.90
27384;DHT22;14851;51.166;4.760;2023-02-15T07:47:50;0.50;99.90
27384;DHT22;14851;51.166;4.760;2023-02-15T07:50:16;0.40;99.90
27384;DHT22;14851;51.166;4.760;2023-02-15T07:52:41;0.40;99.90
27384;DHT22;14851;51.166;4.760;2023-02-15T07:55:07;0.50;99.90
27384;DHT22;14851;51.166;4.760;2023-02-15T07:57:34;0.60;99.90
27384;DHT22;14851;51.166;4.760;2023-02-15T08:00:06;0.70;99.90
27384;DHT22;14851;51.166;4.760;2023-02-15T08:02:38;0.80;99.90
27384;DHT22;14851;51.166;4.760;2023-02-15T08:05:07;0.90;99.90
27384;DHT22;14851;51.166;4.760;2023-02-15T08:07:34;0.90;99.90
27384;DHT22;14851;51.166;4.760;2023-02-15T08:10:01;1.00;99.90
27384;DHT22;14851;51.166;4.760;2023-02-15T08:12:27;1.10;99.90
27384;DHT22;14851;51.166;4.760;2023-02-15T08:14:53;1.10;99.90
27384;DHT22;14851;51.166;4.760;2023-02-15T08:17:19;1.10;99.90
27384;DHT22;14851;51.166;4.760;2023-02-15T08:19:45;1.20;99.90
27384;DHT22;14851;51.166;4.760;2023-02-15T08:22:13;1.20;99.90
27384;DHT22;14851;51.166;4.760;2023-02-15T08:24:40;1.20;99.90
27384;DHT22;14851;51.166;4.760;2023-02-15T08:27:09;1.20;99.90
27384;DHT22;14851;51.166;4.760;2023-02-15T08:29:39;1.20;99.90
27384;DHT22;14851;51.166;4.760;2023-02-15T08:32:11;1.20;99.90
27384;DHT22;14851;51.166;4.760;2023-02-15T08:34:41;1.10;99.90
27384;DHT22;14851;51.166;4.760;2023-02-15T08:37:07;1.20;99.90
27384;DHT22;14851;51.166;4.760;2023-02-15T08:39:33;1.20;99.90
27384;DHT22;14851;51.166;4.760;2023-02-15T08:42:00;1.20;99.90
27384;DHT22;14851;51.166;4.760;2023-02-15T08:44:26;1.10;99.90
27384;DHT22;14851;51.166;4.760;2023-02-15T08:46:51;1.20;99.90
27384;DHT22;14851;51.166;4.760;2023-02-15T08:49:21;1.20;99.90
27384;DHT22;14851;51.166;4.760;2023-02-15T08:51:52;1.30;99.90
27384;DHT22;14851;51.166;4.760;2023-02-15T08:54:20;1.40;99.90
27384;DHT22;14851;51.166;4.760;2023-02-15T08:56:47;1.50;99.90
27384;DHT22;14851;51.166;4.760;2023-02-15T08:59:21;1.50;99.90
27384;DHT22;14851;51.166;4.760;2023-02-15T09:01:48;1.60;99.90
27384;DHT22;14851;51.166;4.760;2023-02-15T09:04:16;1.70;99.90
27384;DHT22;14851;51.166;4.760;2023-02-15T09:06:43;1.70;99.90
27384;DHT22;14851;51.166;4.760;2023-02-15T09:09:11;1.70;99.90
27384;DHT22;14851;51.166;4.760;2023-02-15T09:11:40;1.80;99.90
27384;DHT22;14851;51.166;4.760;2023-02-15T09:14:10;1.90;99.90
27384;DHT22;14851;51.166;4.760;2023-02-15T09:16:40;1.90;99.90
27384;DHT22;14851;51.166;4.760;2023-02-15T09:19:06;2.00;99.90
27384;DHT22;14851;51.166;4.760;2023-02-15T09:21:35;2.00;99.90
27384;DHT22;14851;51.166;4.760;2023-02-15T09:24:08;2.10;99.90
27384;DHT22;14851;51.166;4.760;2023-02-15T09:26:37;2.10;99.90
27384;DHT22;14851;51.166;4.760;2023-02-15T09:29:06;2.20;99.90
27384;DHT22;14851;51.166;4.760;2023-02-15T09:31:37;2.20;99.90
27384;DHT22;14851;51.166;4.760;2023-02-15T09:34:04;2.30;99.90
27384;DHT22;14851;51.166;4.760;2023-02-15T09:36:35;2.30;99.90
27384;DHT22;14851;51.166;4.760;2023-02-15T09:39:21;2.30;99.90
27384;DHT22;14851;51.166;4.760;2023-02-15T09:47:03;2.60;99.90
27384;DHT22;14851;51.166;4.760;2023-02-15T09:57:18;2.60;99.90
27384;DHT22;14851;51.166;4.760;2023-02-15T10:14:15;2.90;99.90
27384;DHT22;14851;51.166;4.760;2023-02-15T10:27:22;3.60;99.90
27384;DHT22;14851;51.166;4.760;2023-02-15T10:29:52;3.60;99.90
27384;DHT22;14851;51.166;4.760;2023-02-15T10:32:24;3.70;99.90
27384;DHT22;14851;51.166;4.760;2023-02-15T10:34:51;3.80;99.90
27384;DHT22;14851;51.166;4.760;2023-02-15T10:37:46;3.90;99.90
27384;DHT22;14851;51.166;4.760;2023-02-15T10:51:34;4.10;99.90
27384;DHT22;14851;51.166;4.760;2023-02-15T10:54:36;4.20;99.90
27384;DHT22;14851;51.166;4.760;2023-02-15T10:57:24;4.20;99.90
27384;DHT22;14851;51.166;4.760;2023-02-15T11:05:38;4.60;99.90
27384;DHT22;14851;51.166;4.760;2023-02-15T11:08:09;4.80;99.90
27384;DHT22;14851;51.166;4.760;2023-02-15T11:10:57;4.90;99.90
27384;DHT22;14851;51.166;4.760;2023-02-15T11:13:26;5.00;99.90
27384;DHT22;14851;51.166;4.760;2023-02-15T11:15:58;5.00;99.90
27384;DHT22;14851;51.166;4.760;2023-02-15T11:18:36;5.10;99.90
27384;DHT22;14851;51.166;4.760;2023-02-15T11:21:29;5.50;99.90
27384;DHT22;14851;51.166;4.760;2023-02-15T11:23:59;5.80;99.90
27384;DHT22;14851;51.166;4.760;2023-02-15T11:29:01;5.60;99.90
27384;DHT22;14851;51.166;4.760;2023-02-15T11:31:49;5.50;99.90
27384;DHT22;14851;51.166;4.760;2023-02-15T11:34:34;5.50;99.90
27384;DHT22;14851;51.166;4.760;2023-02-15T11:37:07;5.40;99.90
27384;DHT22;14851;51.166;4.760;2023-02-15T11:39:35;5.40;99.90
27384;DHT22;14851;51.166;4.760;2023-02-15T11:42:14;5.50;99.90
27384;DHT22;14851;51.166;4.760;2023-02-15T11:45:04;5.50;99.90
27384;DHT22;14851;51.166;4.760;2023-02-15T11:47:31;5.50;99.90
27384;DHT22;14851;51.166;4.760;2023-02-15T11:49:57;5.60;99.90
27384;DHT22;14851;51.166;4.760;2023-02-15T11:52:25;5.60;99.90
27384;DHT22;14851;51.166;4.760;2023-02-15T11:54:55;5.70;99.90
27384;DHT22;14851;51.166;4.760;2023-02-15T11:57:37;5.80;99.90
27384;DHT22;14851;51.166;4.760;2023-02-15T12:02:54;6.00;99.90
27384;DHT22;14851;51.166;4.760;2023-02-15T12:05:28;6.10;99.90
27384;DHT22;14851;51.166;4.760;2023-02-15T12:08:03;6.10;99.90
27384;DHT22;14851;51.166;4.760;2023-02-15T12:10:42;6.20;99.90
27384;DHT22;14851;51.166;4.760;2023-02-15T12:13:14;6.40;99.90
27384;DHT22;14851;51.166;4.760;2023-02-15T12:15:43;6.50;99.90
27384;DHT22;14851;51.166;4.760;2023-02-15T12:18:42;6.70;99.90
27384;DHT22;14851;51.166;4.760;2023-02-15T12:21:12;6.80;99.90
27384;DHT22;14851;51.166;4.760;2023-02-15T12:23:50;6.90;99.90
27384;DHT22;14851;51.166;4.760;2023-02-15T12:26:34;7.00;99.90
27384;DHT22;14851;51.166;4.760;2023-02-15T12:29:15;6.90;99.90
27384;DHT22;14851;51.166;4.760;2023-02-15T12:31:47;6.90;99.90
27384;DHT22;14851;51.166;4.760;2023-02-15T12:34:24;6.80;99.90
27384;DHT22;14851;51.166;4.760;2023-02-15T12:36:55;7.00;99.90
27384;DHT22;14851;51.166;4.760;2023-02-15T12:39:28;7.00;99.90
27384;DHT22;14851;51.166;4.760;2023-02-15T12:44:26;7.20;99.90
27384;DHT22;14851;51.166;4.760;2023-02-15T12:49:34;7.40;99.90
27384;DHT22;14851;51.166;4.760;2023-02-15T12:54:41;7.50;99.90
27384;DHT22;14851;51.166;4.760;2023-02-15T13:02:27;7.50;99.90
27384;DHT22;14851;51.166;4.760;2023-02-15T13:04:55;7.50;99.90
27384;DHT22;14851;51.166;4.760;2023-02-15T13:07:24;7.60;99.90
27384;DHT22;14851;51.166;4.760;2023-02-15T13:09:50;7.70;99.90
27384;DHT22;14851;51.166;4.760;2023-02-15T13:14:47;7.80;99.90
27384;DHT22;14851;51.166;4.760;2023-02-15T13:17:32;7.90;99.90
27384;DHT22;14851;51.166;4.760;2023-02-15T13:20:16;8.10;99.90
27384;DHT22;14851;51.166;4.760;2023-02-15T13:22:45;8.30;99.90
27384;DHT22;14851;51.166;4.760;2023-02-15T13:25:24;8.30;99.90
27384;DHT22;14851;51.166;4.760;2023-02-15T13:27:54;8.40;99.90
27384;DHT22;14851;51.166;4.760;2023-02-15T13:30:29;8.40;99.90
27384;DHT22;14851;51.166;4.760;2023-02-15T13:33:36;8.50;99.90
27384;DHT22;14851;51.166;4.760;2023-02-15T13:38:51;8.50;99.90
27384;DHT22;14851;51.166;4.760;2023-02-15T13:41:50;8.70;99.90
27384;DHT22;14851;51.166;4.760;2023-02-15T13:47:23;8.70;99.90
27384;DHT22;14851;51.166;4.760;2023-02-15T13:52:34;8.70;99.90
27384;DHT22;14851;51.166;4.760;2023-02-15T14:06:46;9.10;99.90
27384;DHT22;14851;51.166;4.760;2023-02-15T14:32:10;9.40;99.90
27384;DHT22;14851;51.166;4.760;2023-02-15T14:37:06;9.60;99.90
27384;DHT22;14851;51.166;4.760;2023-02-15T14:40:49;9.60;99.90
27384;DHT22;14851;51.166;4.760;2023-02-15T14:48:48;9.70;99.90
27384;DHT22;14851;51.166;4.760;2023-02-15T14:54:52;9.70;99.90
27384;DHT22;14851;51.166;4.760;2023-02-15T15:02:23;9.70;99.90
27384;DHT22;14851;51.166;4.760;2023-02-15T15:48:35;9.70;99.90
27384;DHT22;14851;51.166;4.760;2023-02-15T15:51:21;9.80;99.90
27384;DHT22;14851;51.166;4.760;2023-02-15T15:53:52;9.80;99.90
27384;DHT22;14851;51.166;4.760;2023-02-15T15:56:21;9.80;99.90
27384;DHT22;14851;51.166;4.760;2023-02-15T15:58:56;9.80;99.90
27384;DHT22;14851;51.166;4.760;2023-02-15T16:01:30;9.80;99.90
27384;DHT22;14851;51.166;4.760;2023-02-15T16:03:58;9.80;99.90
27384;DHT22;14851;51.166;4.760;2023-02-15T16:06:33;9.80;99.90
27384;DHT22;14851;51.166;4.760;2023-02-15T16:09:23;9.80;99.90
27384;DHT22;14851;51.166;4.760;2023-02-15T16:11:58;9.70;99.90
27384;DHT22;14851;51.166;4.760;2023-02-15T16:14:32;9.70;99.90
27384;DHT22;14851;51.166;4.760;2023-02-15T16:17:04;9.70;99.90
27384;DHT22;14851;51.166;4.760;2023-02-15T16:19:36;9.70;99.90
27384;DHT22;14851;51.166;4.760;2023-02-15T16:27:34;9.70;99.90
27384;DHT22;14851;51.166;4.760;2023-02-15T16:33:03;9.60;99.90
27384;DHT22;14851;51.166;4.760;2023-02-15T16:35:30;9.50;99.90
27384;DHT22;14851;51.166;4.760;2023-02-15T16:37:56;9.50;99.90
27384;DHT22;14851;51.166;4.760;2023-02-15T16:42:56;9.40;99.90
27384;DHT22;14851;51.166;4.760;2023-02-15T16:45:31;9.30;99.90
27384;DHT22;14851;51.166;4.760;2023-02-15T16:47:59;9.20;99.90
27384;DHT22;14851;51.166;4.760;2023-02-15T16:50:32;9.20;99.90
27384;DHT22;14851;51.166;4.760;2023-02-15T16:52:59;9.10;99.90
27384;DHT22;14851;51.166;4.760;2023-02-15T16:55:28;9.00;99.90
27384;DHT22;14851;51.166;4.760;2023-02-15T16:58:01;8.90;99.90
27384;DHT22;14851;51.166;4.760;2023-02-15T17:00:34;8.80;99.90
27384;DHT22;14851;51.166;4.760;2023-02-15T17:05:32;8.60;99.90
27384;DHT22;14851;51.166;4.760;2023-02-15T17:08:29;8.50;99.90
27384;DHT22;14851;51.166;4.760;2023-02-15T17:13:28;8.30;99.90
27384;DHT22;14851;51.166;4.760;2023-02-15T17:18:32;8.20;99.90
27384;DHT22;14851;51.166;4.760;2023-02-15T17:21:08;8.10;99.90
27384;DHT22;14851;51.166;4.760;2023-02-15T17:23:51;8.00;99.90
27384;DHT22;14851;51.166;4.760;2023-02-15T17:26:28;7.90;99.90
27384;DHT22;14851;51.166;4.760;2023-02-15T17:28:59;7.90;99.90
27384;DHT22;14851;51.166;4.760;2023-02-15T17:31:31;7.90;99.90
27384;DHT22;14851;51.166;4.760;2023-02-15T17:33:59;7.90;99.90
27384;DHT22;14851;51.166;4.760;2023-02-15T17:36:29;7.80;99.90
27384;DHT22;14851;51.166;4.760;2023-02-15T17:41:32;7.70;99.90
27384;DHT22;14851;51.166;4.760;2023-02-15T17:44:01;7.70;99.90
27384;DHT22;14851;51.166;4.760;2023-02-15T17:46:32;7.70;99.90
27384;DHT22;14851;51.166;4.760;2023-02-15T17:49:00;7.60;99.90
27384;DHT22;14851;51.166;4.760;2023-02-15T17:51:27;7.60;99.90
27384;DHT22;14851;51.166;4.760;2023-02-15T17:53:55;7.50;99.90
27384;DHT22;14851;51.166;4.760;2023-02-15T17:56:39;7.50;99.90
27384;DHT22;14851;51.166;4.760;2023-02-15T17:59:05;7.40;99.90
27384;DHT22;14851;51.166;4.760;2023-02-15T18:01:42;7.40;99.90
27384;DHT22;14851;51.166;4.760;2023-02-15T18:04:27;7.40;99.90
27384;DHT22;14851;51.166;4.760;2023-02-15T18:07:12;7.30;99.90
27384;DHT22;14851;51.166;4.760;2023-02-15T18:09:56;7.30;99.90
27384;DHT22;14851;51.166;4.760;2023-02-15T18:12:40;7.20;99.90
27384;DHT22;14851;51.166;4.760;2023-02-15T18:15:09;7.20;99.90
27384;DHT22;14851;51.166;4.760;2023-02-15T18:17:45;7.20;99.90
27384;DHT22;14851;51.166;4.760;2023-02-15T18:20:19;7.10;99.90
27384;DHT22;14851;51.166;4.760;2023-02-15T18:22:46;7.00;99.90
27384;DHT22;14851;51.166;4.760;2023-02-15T18:25:13;7.10;99.90
27384;DHT22;14851;51.166;4.760;2023-02-15T18:27:39;7.10;99.90
27384;DHT22;14851;51.166;4.760;2023-02-15T18:30:06;7.10;99.90
27384;DHT22;14851;51.166;4.760;2023-02-15T18:32:35;7.10;99.90
27384;DHT22;14851;51.166;4.760;2023-02-15T18:35:03;7.00;99.90
27384;DHT22;14851;51.166;4.760;2023-02-15T18:37:31;7.00;99.90
27384;DHT22;14851;51.166;4.760;2023-02-15T18:40:00;7.00;99.90
27384;DHT22;14851;51.166;4.760;2023-02-15T18:42:30;7.00;99.90
27384;DHT22;14851;51.166;4.760;2023-02-15T18:44:59;6.90;99.90
27384;DHT22;14851;51.166;4.760;2023-02-15T18:47:29;6.90;99.90
27384;DHT22;14851;51.166;4.760;2023-02-15T18:49:55;6.80;99.90
27384;DHT22;14851;51.166;4.760;2023-02-15T18:52:23;6.80;99.90
27384;DHT22;14851;51.166;4.760;2023-02-15T18:54:57;6.70;99.90
27384;DHT22;14851;51.166;4.760;2023-02-15T18:57:23;6.70;99.90
27384;DHT22;14851;51.166;4.760;2023-02-15T18:59:48;6.70;99.90
27384;DHT22;14851;51.166;4.760;2023-02-15T19:02:16;6.80;99.90
27384;DHT22;14851;51.166;4.760;2023-02-15T19:04:43;6.80;99.90
27384;DHT22;14851;51.166;4.760;2023-02-15T19:07:15;6.70;99.90
27384;DHT22;14851;51.166;4.760;2023-02-15T19:09:44;6.60;99.90
27384;DHT22;14851;51.166;4.760;2023-02-15T19:12:12;6.60;99.90
27384;DHT22;14851;51.166;4.760;2023-02-15T19:14:38;6.60;99.90
27384;DHT22;14851;51.166;4.760;2023-02-15T19:17:16;6.60;99.90
27384;DHT22;14851;51.166;4.760;2023-02-15T19:19:43;6.50;99.90
27384;DHT22;14851;51.166;4.760;2023-02-15T19:24:50;6.50;99.90
27384;DHT22;14851;51.166;4.760;2023-02-15T19:27:27;6.50;99.90
27384;DHT22;14851;51.166;4.760;2023-02-15T19:29:56;6.50;99.90
27384;DHT22;14851;51.166;4.760;2023-02-15T19:32:25;6.40;99.90
27384;DHT22;14851;51.166;4.760;2023-02-15T19:34:54;6.40;99.90
27384;DHT22;14851;51.166;4.760;2023-02-15T19:37:35;6.30;99.90
27384;DHT22;14851;51.166;4.760;2023-02-15T19:40:06;6.30;99.90
27384;DHT22;14851;51.166;4.760;2023-02-15T19:42:40;6.20;99.90
27384;DHT22;14851;51.166;4.760;2023-02-15T19:45:17;6.20;99.90
27384;DHT22;14851;51.166;4.760;2023-02-15T19:47:44;6.10;99.90
27384;DHT22;14851;51.166;4.760;2023-02-15T19:50:17;6.20;99.90
27384;DHT22;14851;51.166;4.760;2023-02-15T19:52:46;6.20;99.90
27384;DHT22;14851;51.166;4.760;2023-02-15T19:55:27;6.10;99.90
27384;DHT22;14851;51.166;4.760;2023-02-15T19:57:54;6.10;99.90
27384;DHT22;14851;51.166;4.760;2023-02-15T20:00:28;6.00;99.90
27384;DHT22;14851;51.166;4.760;2023-02-15T20:02:57;6.00;99.90
27384;DHT22;14851;51.166;4.760;2023-02-15T20:05:27;5.90;99.90
27384;DHT22;14851;51.166;4.760;2023-02-15T20:07:54;5.80;99.90